sensor_id;sensor_type;location;lat;lon;timestamp;pressure;altitude;pressure_sealevel;temperature;humidity
6393;BME280;3229;42.674;23.282;2023-05-17T00:00:18;94006.03;;;17.22;77.88
6393;BME280;3229;42.674;23.282;2023-05-17T00:02:45;94029.91;;;17.31;77.80
6393;BME280;3229;42.674;23.282;2023-05-17T00:05:11;94032.91;;;17.28;77.77
6393;BME280;3229;42.674;23.282;2023-05-17T00:07:38;94041.81;;;17.25;77.88
6393;BME280;3229;42.674;23.282;2023-05-17T00:10:06;94045.41;;;17.24;77.93
6393;BME280;3229;42.674;23.282;2023-05-17T00:12:34;94049.16;;;17.22;77.99
6393;BME280;3229;42.674;23.282;2023-05-17T00:15:01;94035.81;;;17.18;77.84
6393;BME280;3229;42.674;23.282;2023-05-17T00:17:28;94030.28;;;17.15;78.06
6393;BME280;3229;42.674;23.282;2023-05-17T00:19:55;94034.22;;;17.11;78.14
6393;BME280;3229;42.674;23.282;2023-05-17T00:22:21;94033.44;;;17.10;78.04
6393;BME280;3229;42.674;23.282;2023-05-17T00:24:48;94043.16;;;17.08;78.03
6393;BME280;3229;42.674;23.282;2023-05-17T00:27:15;94031.19;;;17.00;78.18
6393;BME280;3229;42.674;23.282;2023-05-17T00:29:43;94031.03;;;17.02;78.07
6393;BME280;3229;42.674;23.282;2023-05-17T00:32:10;94031.59;;;16.97;78.30
6393;BME280;3229;42.674;23.282;2023-05-17T00:34:37;94019.84;;;16.95;78.33
6393;BME280;3229;42.674;23.282;2023-05-17T00:37:03;94028.41;;;16.95;78.35
6393;BME280;3229;42.674;23.282;2023-05-17T00:39:30;94009.28;;;16.83;78.37
6393;BME280;3229;42.674;23.282;2023-05-17T00:41:58;94031.56;;;16.91;78.46
6393;BME280;3229;42.674;23.282;2023-05-17T00:44:26;94037.09;;;16.88;78.52
6393;BME280;3229;42.674;23.282;2023-05-17T00:46:54;94040.25;;;16.83;78.43
6393;BME280;3229;42.674;23.282;2023-05-17T00:49:21;94047.22;;;16.83;78.55
6393;BME280;3229;42.674;23.282;2023-05-17T00:51:48;94038.88;;;16.80;78.50
6393;BME280;3229;42.674;23.282;2023-05-17T00:54:15;94035.25;;;16.75;78.69
6393;BME280;3229;42.674;23.282;2023-05-17T00:56:42;94048.16;;;16.75;78.62
6393;BME280;3229;42.674;23.282;2023-05-17T00:59:11;94044.34;;;16.71;78.73
6393;BME280;3229;42.674;23.282;2023-05-17T01:01:40;94044.91;;;16.66;78.83
6393;BME280;3229;42.674;23.282;2023-05-17T01:04:09;94046.53;;;16.67;78.79
6393;BME280;3229;42.674;23.282;2023-05-17T01:06:36;94045.75;;;16.67;78.89
6393;BME280;3229;42.674;23.282;2023-05-17T01:09:03;94034.00;;;16.64;78.82
6393;BME280;3229;42.674;23.282;2023-05-17T01:11:38;94025.19;;;16.52;79.04
6393;BME280;3229;42.674;23.282;2023-05-17T01:14:17;94040.31;;;16.62;78.90
6393;BME280;3229;42.674;23.282;2023-05-17T01:16:49;94041.31;;;16.61;78.83
6393;BME280;3229;42.674;23.282;2023-05-17T01:22:21;94033.16;;;16.57;78.98
6393;BME280;3229;42.674;23.282;2023-05-17T01:25:03;94038.72;;;16.54;79.03
6393;BME280;3229;42.674;23.282;2023-05-17T01:27:35;94037.91;;;16.53;79.19
6393;BME280;3229;42.674;23.282;2023-05-17T01:30:06;94039.28;;;16.49;78.96
6393;BME280;3229;42.674;23.282;2023-05-17T01:32:37;94038.66;;;16.47;79.22
6393;BME280;3229;42.674;23.282;2023-05-17T01:35:06;94036.28;;;16.46;79.18
6393;BME280;3229;42.674;23.282;2023-05-17T01:37:33;94027.91;;;16.44;79.19
6393;BME280;3229;42.674;23.282;2023-05-17T01:40:00;94019.38;;;16.37;79.21
6393;BME280;3229;42.674;23.282;2023-05-17T01:42:30;94038.81;;;16.39;79.13
6393;BME280;3229;42.674;23.282;2023-05-17T01:45:04;94002.16;;;16.16;79.21
6393;BME280;3229;42.674;23.282;2023-05-17T01:47:37;94032.00;;;16.31;79.22
6393;BME280;3229;42.674;23.282;2023-05-17T01:50:06;94048.13;;;16.34;79.15
6393;BME280;3229;42.674;23.282;2023-05-17T01:52:40;94040.94;;;16.29;79.34
6393;BME280;3229;42.674;23.282;2023-05-17T01:55:14;94029.63;;;16.30;79.38
6393;BME280;3229;42.674;23.282;2023-05-17T01:57:44;94009.50;;;16.19;79.40
6393;BME280;3229;42.674;23.282;2023-05-17T02:00:16;94022.59;;;16.17;79.33
6393;BME280;3229;42.674;23.282;2023-05-17T02:02:44;94036.50;;;16.23;79.28
6393;BME280;3229;42.674;23.282;2023-05-17T02:05:11;94038.50;;;16.21;79.59
6393;BME280;3229;42.674;23.282;2023-05-17T02:07:37;94034.34;;;16.20;79.50
6393;BME280;3229;42.674;23.282;2023-05-17T02:10:05;94032.13;;;16.17;79.59
6393;BME280;3229;42.674;23.282;2023-05-17T02:12:32;94024.59;;;16.15;79.57
6393;BME280;3229;42.674;23.282;2023-05-17T02:14:59;94023.97;;;16.13;79.52
6393;BME280;3229;42.674;23.282;2023-05-17T02:17:27;94013.78;;;16.05;79.69
6393;BME280;3229;42.674;23.282;2023-05-17T02:19:54;94019.56;;;16.07;79.54
6393;BME280;3229;42.674;23.282;2023-05-17T02:22:21;94025.31;;;16.09;79.70
6393;BME280;3229;42.674;23.282;2023-05-17T02:24:48;94017.16;;;16.05;79.62
6393;BME280;3229;42.674;23.282;2023-05-17T02:27:14;94028.25;;;16.06;79.81
6393;BME280;3229;42.674;23.282;2023-05-17T02:29:41;94024.28;;;16.03;79.67
6393;BME280;3229;42.674;23.282;2023-05-17T02:32:08;94008.16;;;15.95;79.62
6393;BME280;3229;42.674;23.282;2023-05-17T02:34:36;94013.31;;;15.95;79.85
6393;BME280;3229;42.674;23.282;2023-05-17T02:37:03;94022.28;;;15.99;79.51
6393;BME280;3229;42.674;23.282;2023-05-17T02:39:31;94031.97;;;15.97;79.80
6393;BME280;3229;42.674;23.282;2023-05-17T02:41:58;94022.84;;;15.94;79.83
6393;BME280;3229;42.674;23.282;2023-05-17T02:44:25;94028.16;;;15.93;79.85
6393;BME280;3229;42.674;23.282;2023-05-17T02:46:51;94030.16;;;15.91;79.88
6393;BME280;3229;42.674;23.282;2023-05-17T02:49:18;94028.72;;;15.88;79.87
6393;BME280;3229;42.674;23.282;2023-05-17T02:51:46;94043.41;;;15.88;79.70
6393;BME280;3229;42.674;23.282;2023-05-17T02:54:13;94043.41;;;15.88;79.75
6393;BME280;3229;42.674;23.282;2023-05-17T02:56:40;94048.75;;;15.86;79.75
6393;BME280;3229;42.674;23.282;2023-05-17T02:59:06;94053.28;;;15.84;79.80
6393;BME280;3229;42.674;23.282;2023-05-17T03:01:33;94056.84;;;15.83;79.89
6393;BME280;3229;42.674;23.282;2023-05-17T03:04:00;94062.22;;;15.82;79.76
6393;BME280;3229;42.674;23.282;2023-05-17T03:06:27;94069.69;;;15.76;79.83
6393;BME280;3229;42.674;23.282;2023-05-17T03:08:55;94068.50;;;15.79;80.01
6393;BME280;3229;42.674;23.282;2023-05-17T03:11:22;94074.66;;;15.78;79.73
6393;BME280;3229;42.674;23.282;2023-05-17T03:13:48;94073.88;;;15.77;79.87
6393;BME280;3229;42.674;23.282;2023-05-17T03:16:16;94065.66;;;15.67;79.74
6393;BME280;3229;42.674;23.282;2023-05-17T03:18:42;94080.81;;;15.77;79.74
6393;BME280;3229;42.674;23.282;2023-05-17T03:21:09;94059.75;;;15.59;80.23
6393;BME280;3229;42.674;23.282;2023-05-17T03:23:36;94086.75;;;15.77;79.77
6393;BME280;3229;42.674;23.282;2023-05-17T03:26:04;94086.56;;;15.79;79.76
6393;BME280;3229;42.674;23.282;2023-05-17T03:28:31;94083.19;;;15.78;79.81
6393;BME280;3229;42.674;23.282;2023-05-17T03:30:58;94078.47;;;15.82;79.62
6393;BME280;3229;42.674;23.282;2023-05-17T03:33:24;94079.25;;;15.83;79.52
6393;BME280;3229;42.674;23.282;2023-05-17T03:35:51;94075.13;;;15.88;79.66
6393;BME280;3229;42.674;23.282;2023-05-17T03:38:18;94076.56;;;15.91;79.35
6393;BME280;3229;42.674;23.282;2023-05-17T03:40:45;94063.66;;;15.91;79.24
6393;BME280;3229;42.674;23.282;2023-05-17T03:43:13;94074.09;;;16.04;79.17
6393;BME280;3229;42.674;23.282;2023-05-17T03:45:40;94065.59;;;16.10;78.81
6393;BME280;3229;42.674;23.282;2023-05-17T03:48:07;94068.25;;;16.17;78.64
6393;BME280;3229;42.674;23.282;2023-05-17T03:50:33;94074.84;;;16.26;78.53
6393;BME280;3229;42.674;23.282;2023-05-17T03:53:00;94072.94;;;16.35;78.29
6393;BME280;3229;42.674;23.282;2023-05-17T03:55:27;94075.56;;;16.41;78.15
6393;BME280;3229;42.674;23.282;2023-05-17T03:57:54;94073.38;;;16.45;78.03
6393;BME280;3229;42.674;23.282;2023-05-17T04:00:22;94071.06;;;16.50;77.98
6393;BME280;3229;42.674;23.282;2023-05-17T04:02:50;94034.03;;;16.36;77.75
6393;BME280;3229;42.674;23.282;2023-05-17T04:05:17;94081.06;;;16.66;77.68
6393;BME280;3229;42.674;23.282;2023-05-17T04:07:43;94077.41;;;16.75;77.37
6393;BME280;3229;42.674;23.282;2023-05-17T04:10:10;94088.75;;;16.88;77.10
6393;BME280;3229;42.674;23.282;2023-05-17T04:12:37;94084.66;;;17.00;76.80
6393;BME280;3229;42.674;23.282;2023-05-17T04:15:05;94085.91;;;17.11;76.85
6393;BME280;3229;42.674;23.282;2023-05-17T04:17:33;94088.13;;;17.27;76.23
6393;BME280;3229;42.674;23.282;2023-05-17T04:20:00;94078.06;;;17.45;75.84
6393;BME280;3229;42.674;23.282;2023-05-17T04:22:28;94079.50;;;17.68;75.23
6393;BME280;3229;42.674;23.282;2023-05-17T04:24:54;94078.16;;;17.85;74.83
6393;BME280;3229;42.674;23.282;2023-05-17T04:27:21;94077.00;;;18.01;74.50
6393;BME280;3229;42.674;23.282;2023-05-17T04:29:48;94078.81;;;18.14;74.26
6393;BME280;3229;42.674;23.282;2023-05-17T04:32:16;94082.56;;;18.24;74.05
6393;BME280;3229;42.674;23.282;2023-05-17T04:34:44;94077.78;;;18.35;73.89
6393;BME280;3229;42.674;23.282;2023-05-17T04:37:12;94066.03;;;18.45;73.51
6393;BME280;3229;42.674;23.282;2023-05-17T04:39:39;94075.97;;;18.62;73.31
6393;BME280;3229;42.674;23.282;2023-05-17T04:42:06;94073.16;;;18.76;74.68
6393;BME280;3229;42.674;23.282;2023-05-17T04:44:33;94075.28;;;19.06;83.66
6393;BME280;3229;42.674;23.282;2023-05-17T04:47:00;94071.16;;;19.37;85.71
6393;BME280;3229;42.674;23.282;2023-05-17T04:49:28;94080.38;;;19.71;85.26
6393;BME280;3229;42.674;23.282;2023-05-17T04:51:56;94043.41;;;19.82;84.17
6393;BME280;3229;42.674;23.282;2023-05-17T04:54:23;94085.09;;;20.37;82.58
6393;BME280;3229;42.674;23.282;2023-05-17T04:56:50;94074.88;;;20.67;81.11
6393;BME280;3229;42.674;23.282;2023-05-17T04:59:17;94067.38;;;20.96;80.04
6393;BME280;3229;42.674;23.282;2023-05-17T05:01:43;94055.25;;;21.08;79.00
6393;BME280;3229;42.674;23.282;2023-05-17T05:04:10;94082.31;;;21.56;77.34
6393;BME280;3229;42.674;23.282;2023-05-17T05:06:37;94082.06;;;21.87;75.83
6393;BME280;3229;42.674;23.282;2023-05-17T05:09:06;94087.50;;;22.16;74.49
6393;BME280;3229;42.674;23.282;2023-05-17T05:11:33;94087.97;;;22.48;73.23
6393;BME280;3229;42.674;23.282;2023-05-17T05:14:00;94106.22;;;22.83;72.23
6393;BME280;3229;42.674;23.282;2023-05-17T05:16:26;94100.97;;;23.18;71.37
6393;BME280;3229;42.674;23.282;2023-05-17T05:18:53;94102.50;;;23.54;70.43
6393;BME280;3229;42.674;23.282;2023-05-17T05:21:20;94108.97;;;23.92;69.00
6393;BME280;3229;42.674;23.282;2023-05-17T05:23:47;94108.28;;;24.31;67.42
6393;BME280;3229;42.674;23.282;2023-05-17T05:26:15;94103.72;;;24.71;65.78
6393;BME280;3229;42.674;23.282;2023-05-17T05:28:42;94103.50;;;25.12;63.48
6393;BME280;3229;42.674;23.282;2023-05-17T05:31:08;94106.38;;;25.54;62.15
6393;BME280;3229;42.674;23.282;2023-05-17T05:33:35;94099.94;;;25.89;60.81
6393;BME280;3229;42.674;23.282;2023-05-17T05:36:02;94101.88;;;26.25;59.57
6393;BME280;3229;42.674;23.282;2023-05-17T05:38:29;94100.28;;;26.51;58.72
6393;BME280;3229;42.674;23.282;2023-05-17T05:40:56;94100.47;;;26.82;57.65
6393;BME280;3229;42.674;23.282;2023-05-17T05:43:24;94102.19;;;27.04;57.13
6393;BME280;3229;42.674;23.282;2023-05-17T05:45:51;94090.41;;;27.11;55.84
6393;BME280;3229;42.674;23.282;2023-05-17T05:48:18;94109.69;;;27.37;55.34
6393;BME280;3229;42.674;23.282;2023-05-17T05:50:44;94111.13;;;27.60;54.85
6393;BME280;3229;42.674;23.282;2023-05-17T05:53:12;94113.31;;;27.84;54.12
6393;BME280;3229;42.674;23.282;2023-05-17T05:55:40;94101.50;;;27.96;54.05
6393;BME280;3229;42.674;23.282;2023-05-17T05:58:07;94098.88;;;28.01;53.62
6393;BME280;3229;42.674;23.282;2023-05-17T06:00:36;94106.00;;;28.26;53.34
6393;BME280;3229;42.674;23.282;2023-05-17T06:03:04;94118.94;;;28.43;52.78
6393;BME280;3229;42.674;23.282;2023-05-17T06:05:32;94118.41;;;28.57;52.25
6393;BME280;3229;42.674;23.282;2023-05-17T06:07:59;94122.09;;;28.61;52.45
6393;BME280;3229;42.674;23.282;2023-05-17T06:10:26;94121.56;;;28.74;52.08
6393;BME280;3229;42.674;23.282;2023-05-17T06:12:53;94104.19;;;28.78;51.40
6393;BME280;3229;42.674;23.282;2023-05-17T06:15:19;94110.75;;;28.91;50.94
6393;BME280;3229;42.674;23.282;2023-05-17T06:17:48;94119.97;;;29.04;50.87
6393;BME280;3229;42.674;23.282;2023-05-17T06:20:14;94129.69;;;29.23;50.22
6393;BME280;3229;42.674;23.282;2023-05-17T06:22:41;94136.50;;;29.30;49.89
6393;BME280;3229;42.674;23.282;2023-05-17T06:25:08;94129.38;;;29.30;49.52
6393;BME280;3229;42.674;23.282;2023-05-17T06:27:36;94134.38;;;29.32;49.44
6393;BME280;3229;42.674;23.282;2023-05-17T06:30:03;94122.84;;;29.17;49.42
6393;BME280;3229;42.674;23.282;2023-05-17T06:32:30;94136.53;;;29.24;49.12
6393;BME280;3229;42.674;23.282;2023-05-17T06:34:58;94131.50;;;29.18;48.97
6393;BME280;3229;42.674;23.282;2023-05-17T06:37:25;94124.16;;;29.20;49.08
6393;BME280;3229;42.674;23.282;2023-05-17T06:39:54;94145.69;;;29.37;48.91
6393;BME280;3229;42.674;23.282;2023-05-17T06:42:27;94133.53;;;29.46;48.48
6393;BME280;3229;42.674;23.282;2023-05-17T06:44:53;94119.34;;;29.42;48.28
6393;BME280;3229;42.674;23.282;2023-05-17T06:47:20;94135.09;;;29.58;48.48
6393;BME280;3229;42.674;23.282;2023-05-17T06:49:47;94134.00;;;29.69;48.08
6393;BME280;3229;42.674;23.282;2023-05-17T06:52:15;94128.44;;;29.81;47.92
6393;BME280;3229;42.674;23.282;2023-05-17T06:54:42;94138.91;;;29.91;47.55
6393;BME280;3229;42.674;23.282;2023-05-17T06:57:09;94131.75;;;29.96;47.44
6393;BME280;3229;42.674;23.282;2023-05-17T06:59:36;94132.53;;;30.02;47.28
6393;BME280;3229;42.674;23.282;2023-05-17T07:02:03;94134.84;;;30.09;46.95
6393;BME280;3229;42.674;23.282;2023-05-17T07:04:30;94146.66;;;30.21;46.96
6393;BME280;3229;42.674;23.282;2023-05-17T07:06:57;94136.63;;;30.29;46.49
6393;BME280;3229;42.674;23.282;2023-05-17T07:09:25;94133.38;;;30.37;46.54
6393;BME280;3229;42.674;23.282;2023-05-17T07:11:52;94136.28;;;30.40;46.37
6393;BME280;3229;42.674;23.282;2023-05-17T07:14:18;94140.97;;;30.48;45.98
6393;BME280;3229;42.674;23.282;2023-05-17T07:16:45;94153.34;;;30.53;45.90
6393;BME280;3229;42.674;23.282;2023-05-17T07:19:13;94146.44;;;30.57;45.55
6393;BME280;3229;42.674;23.282;2023-05-17T07:21:40;94155.66;;;30.60;45.79
6393;BME280;3229;42.674;23.282;2023-05-17T07:24:07;94150.59;;;30.63;45.68
6393;BME280;3229;42.674;23.282;2023-05-17T07:26:36;94157.22;;;30.61;45.51
6393;BME280;3229;42.674;23.282;2023-05-17T07:29:02;94153.84;;;30.55;45.50
6393;BME280;3229;42.674;23.282;2023-05-17T07:31:29;94147.81;;;30.49;45.69
6393;BME280;3229;42.674;23.282;2023-05-17T07:33:56;94156.03;;;30.43;45.76
6393;BME280;3229;42.674;23.282;2023-05-17T07:36:23;94160.03;;;30.35;45.79
6393;BME280;3229;42.674;23.282;2023-05-17T07:38:51;94141.94;;;30.13;45.58
6393;BME280;3229;42.674;23.282;2023-05-17T07:41:18;94163.81;;;30.14;45.71
6393;BME280;3229;42.674;23.282;2023-05-17T07:43:48;94162.59;;;30.01;45.76
6393;BME280;3229;42.674;23.282;2023-05-17T07:46:16;94168.19;;;29.89;46.29
6393;BME280;3229;42.674;23.282;2023-05-17T07:48:43;94166.16;;;29.76;46.04
6393;BME280;3229;42.674;23.282;2023-05-17T07:51:09;94134.06;;;29.54;46.30
6393;BME280;3229;42.674;23.282;2023-05-17T07:53:36;94153.28;;;29.54;46.38
6393;BME280;3229;42.674;23.282;2023-05-17T07:56:04;94151.72;;;29.48;46.68
6393;BME280;3229;42.674;23.282;2023-05-17T07:58:30;94165.97;;;29.42;46.74
6393;BME280;3229;42.674;23.282;2023-05-17T08:00:59;94161.22;;;29.39;46.68
6393;BME280;3229;42.674;23.282;2023-05-17T08:03:26;94153.63;;;29.32;46.60
6393;BME280;3229;42.674;23.282;2023-05-17T08:05:53;94153.09;;;29.25;46.61
6393;BME280;3229;42.674;23.282;2023-05-17T08:08:20;94155.47;;;29.21;46.71
6393;BME280;3229;42.674;23.282;2023-05-17T08:10:47;94153.38;;;29.18;46.66
6393;BME280;3229;42.674;23.282;2023-05-17T08:13:14;94147.31;;;29.18;46.66
6393;BME280;3229;42.674;23.282;2023-05-17T08:15:41;94158.38;;;29.20;46.86
6393;BME280;3229;42.674;23.282;2023-05-17T08:18:09;94146.81;;;29.16;46.42
6393;BME280;3229;42.674;23.282;2023-05-17T08:20:36;94153.13;;;29.15;46.42
6393;BME280;3229;42.674;23.282;2023-05-17T08:23:03;94149.97;;;29.13;46.44
6393;BME280;3229;42.674;23.282;2023-05-17T08:25:30;94148.13;;;29.08;46.74
6393;BME280;3229;42.674;23.282;2023-05-17T08:27:57;94148.69;;;29.00;46.89
6393;BME280;3229;42.674;23.282;2023-05-17T08:30:23;94113.94;;;28.78;46.96
6393;BME280;3229;42.674;23.282;2023-05-17T08:32:50;94138.66;;;28.87;46.99
6393;BME280;3229;42.674;23.282;2023-05-17T08:35:18;94137.09;;;28.86;46.65
6393;BME280;3229;42.674;23.282;2023-05-17T08:37:46;94137.09;;;28.81;46.88
6393;BME280;3229;42.674;23.282;2023-05-17T08:40:12;94133.66;;;28.70;46.90
6393;BME280;3229;42.674;23.282;2023-05-17T08:42:44;94141.56;;;28.70;47.18
6393;BME280;3229;42.674;23.282;2023-05-17T08:45:12;94142.38;;;28.60;47.52
6393;BME280;3229;42.674;23.282;2023-05-17T08:47:40;94136.84;;;28.46;47.22
6393;BME280;3229;42.674;23.282;2023-05-17T08:50:09;94146.56;;;28.56;47.28
6393;BME280;3229;42.674;23.282;2023-05-17T08:52:39;94144.72;;;28.57;47.28
6393;BME280;3229;42.674;23.282;2023-05-17T08:55:07;94145.50;;;28.62;47.32
6393;BME280;3229;42.674;23.282;2023-05-17T08:57:34;94145.00;;;28.60;47.42
6393;BME280;3229;42.674;23.282;2023-05-17T09:00:03;94137.63;;;28.57;47.37
6393;BME280;3229;42.674;23.282;2023-05-17T09:02:37;94142.38;;;28.55;47.41
6393;BME280;3229;42.674;23.282;2023-05-17T09:05:05;94142.09;;;28.52;47.44
6393;BME280;3229;42.674;23.282;2023-05-17T09:07:33;94105.22;;;28.26;47.54
6393;BME280;3229;42.674;23.282;2023-05-17T09:10:01;94138.41;;;28.47;47.75
6393;BME280;3229;42.674;23.282;2023-05-17T09:12:30;94136.84;;;28.41;47.86
6393;BME280;3229;42.674;23.282;2023-05-17T09:15:11;94124.97;;;28.34;47.51
6393;BME280;3229;42.674;23.282;2023-05-17T09:17:39;94124.69;;;28.25;48.07
6393;BME280;3229;42.674;23.282;2023-05-17T09:20:07;94127.56;;;28.18;47.92
6393;BME280;3229;42.674;23.282;2023-05-17T09:22:34;94121.53;;;28.13;47.89
6393;BME280;3229;42.674;23.282;2023-05-17T09:25:03;94124.94;;;28.08;48.37
6393;BME280;3229;42.674;23.282;2023-05-17T09:27:30;94118.06;;;28.02;48.22
6393;BME280;3229;42.674;23.282;2023-05-17T09:29:57;94122.81;;;28.00;48.49
6393;BME280;3229;42.674;23.282;2023-05-17T09:32:23;94114.66;;;27.91;48.17
6393;BME280;3229;42.674;23.282;2023-05-17T09:34:51;94128.31;;;27.93;48.44
6393;BME280;3229;42.674;23.282;2023-05-17T09:37:18;94113.84;;;27.91;48.41
6393;BME280;3229;42.674;23.282;2023-05-17T09:39:46;94118.06;;;27.92;48.15
6393;BME280;3229;42.674;23.282;2023-05-17T09:42:15;94122.00;;;27.89;48.57
6393;BME280;3229;42.674;23.282;2023-05-17T09:44:50;94117.50;;;27.85;48.66
6393;BME280;3229;42.674;23.282;2023-05-17T09:47:24;94126.16;;;27.75;48.23
6393;BME280;3229;42.674;23.282;2023-05-17T09:49:52;94130.31;;;27.71;48.73
6393;BME280;3229;42.674;23.282;2023-05-17T09:52:19;94104.00;;;27.50;48.47
6393;BME280;3229;42.674;23.282;2023-05-17T09:54:53;94124.75;;;27.57;48.79
6393;BME280;3229;42.674;23.282;2023-05-17T09:57:22;94125.81;;;27.51;48.79
6393;BME280;3229;42.674;23.282;2023-05-17T09:59:50;94129.19;;;27.46;49.08
6393;BME280;3229;42.674;23.282;2023-05-17T10:02:21;94133.63;;;27.41;48.78
6393;BME280;3229;42.674;23.282;2023-05-17T10:04:49;94110.75;;;27.36;48.98
6393;BME280;3229;42.674;23.282;2023-05-17T10:07:20;94116.53;;;27.33;49.07
6393;BME280;3229;42.674;23.282;2023-05-17T10:09:47;94098.56;;;27.15;49.32
6393;BME280;3229;42.674;23.282;2023-05-17T10:12:16;94121.47;;;27.24;48.81
6393;BME280;3229;42.674;23.282;2023-05-17T10:14:45;94108.06;;;27.21;49.26
6393;BME280;3229;42.674;23.282;2023-05-17T10:17:13;94109.06;;;27.15;48.90
6393;BME280;3229;42.674;23.282;2023-05-17T10:19:41;94103.25;;;27.08;49.09
6393;BME280;3229;42.674;23.282;2023-05-17T10:22:09;94086.38;;;26.98;49.15
6393;BME280;3229;42.674;23.282;2023-05-17T10:24:36;94084.25;;;26.90;49.75
6393;BME280;3229;42.674;23.282;2023-05-17T10:27:05;94079.50;;;26.82;49.79
6393;BME280;3229;42.674;23.282;2023-05-17T10:29:32;94066.81;;;26.69;50.09
6393;BME280;3229;42.674;23.282;2023-05-17T10:32:04;94071.47;;;26.62;50.03
6393;BME280;3229;42.674;23.282;2023-05-17T10:34:34;94065.38;;;26.51;50.42
6393;BME280;3229;42.674;23.282;2023-05-17T10:37:02;94034.06;;;26.39;50.67
6393;BME280;3229;42.674;23.282;2023-05-17T10:39:29;94026.63;;;26.26;50.82
6393;BME280;3229;42.674;23.282;2023-05-17T10:42:01;94009.75;;;26.12;51.40
6393;BME280;3229;42.674;23.282;2023-05-17T10:44:31;94002.09;;;26.05;51.38
6393;BME280;3229;42.674;23.282;2023-05-17T10:46:59;93989.38;;;25.87;51.59
6393;BME280;3229;42.674;23.282;2023-05-17T10:49:29;93995.94;;;25.89;51.73
6393;BME280;3229;42.674;23.282;2023-05-17T10:51:56;93990.38;;;25.81;52.47
6393;BME280;3229;42.674;23.282;2023-05-17T10:54:33;93979.81;;;25.75;52.55
6393;BME280;3229;42.674;23.282;2023-05-17T10:57:03;93972.69;;;25.66;52.65
6393;BME280;3229;42.674;23.282;2023-05-17T10:59:34;93982.63;;;25.69;52.61
6393;BME280;3229;42.674;23.282;2023-05-17T11:02:03;93945.50;;;25.45;52.92
6393;BME280;3229;42.674;23.282;2023-05-17T11:04:36;93968.22;;;25.66;52.54
6393;BME280;3229;42.674;23.282;2023-05-17T11:07:21;93971.16;;;25.70;52.82
6393;BME280;3229;42.674;23.282;2023-05-17T11:09:51;93967.78;;;25.74;52.89
6393;BME280;3229;42.674;23.282;2023-05-17T11:12:30;93975.69;;;25.80;52.90
6393;BME280;3229;42.674;23.282;2023-05-17T11:14:58;93984.63;;;25.84;52.92
6393;BME280;3229;42.674;23.282;2023-05-17T11:17:26;93989.38;;;25.87;52.66
6393;BME280;3229;42.674;23.282;2023-05-17T11:20:08;93991.75;;;25.88;52.70
6393;BME280;3229;42.674;23.282;2023-05-17T11:22:39;93996.72;;;25.90;52.64
6393;BME280;3229;42.674;23.282;2023-05-17T11:25:09;94015.38;;;25.93;52.71
6393;BME280;3229;42.674;23.282;2023-05-17T11:27:37;94018.00;;;25.93;52.77
6393;BME280;3229;42.674;23.282;2023-05-17T11:30:14;94019.56;;;25.94;52.54
6393;BME280;3229;42.674;23.282;2023-05-17T11:32:45;94040.53;;;25.94;52.74
6393;BME280;3229;42.674;23.282;2023-05-17T11:35:14;94044.47;;;25.97;52.46
6393;BME280;3229;42.674;23.282;2023-05-17T11:37:43;94052.88;;;25.99;52.28
6393;BME280;3229;42.674;23.282;2023-05-17T11:40:11;94060.72;;;25.99;52.90
6393;BME280;3229;42.674;23.282;2023-05-17T11:42:39;94073.59;;;26.00;52.46
6393;BME280;3229;42.674;23.282;2023-05-17T11:45:07;94071.00;;;26.00;52.33
6393;BME280;3229;42.674;23.282;2023-05-17T11:47:37;94077.00;;;26.01;52.38
6393;BME280;3229;42.674;23.282;2023-05-17T11:50:06;94065.72;;;25.95;52.55
6393;BME280;3229;42.674;23.282;2023-05-17T11:52:34;94066.38;;;25.86;52.66
6393;BME280;3229;42.674;23.282;2023-05-17T11:55:02;94090.81;;;25.91;52.88
6393;BME280;3229;42.674;23.282;2023-05-17T11:57:30;94067.44;;;25.85;52.74
6393;BME280;3229;42.674;23.282;2023-05-17T11:59:58;94062.63;;;25.76;52.67
6393;BME280;3229;42.674;23.282;2023-05-17T12:02:25;94058.53;;;25.64;53.15
6393;BME280;3229;42.674;23.282;2023-05-17T12:04:52;94073.59;;;25.73;53.26
6393;BME280;3229;42.674;23.282;2023-05-17T12:07:19;94068.28;;;25.68;53.13
6393;BME280;3229;42.674;23.282;2023-05-17T12:09:48;94072.41;;;25.64;53.42
6393;BME280;3229;42.674;23.282;2023-05-17T12:12:15;94073.72;;;25.62;53.17
6393;BME280;3229;42.674;23.282;2023-05-17T12:14:43;94071.84;;;25.57;53.75
6393;BME280;3229;42.674;23.282;2023-05-17T12:17:18;94068.13;;;25.53;53.56
6393;BME280;3229;42.674;23.282;2023-05-17T12:19:46;94035.44;;;25.34;53.74
6393;BME280;3229;42.674;23.282;2023-05-17T12:22:17;94060.50;;;25.51;53.24
6393;BME280;3229;42.674;23.282;2023-05-17T12:24:43;94061.59;;;25.56;53.62
6393;BME280;3229;42.674;23.282;2023-05-17T12:27:12;94055.63;;;25.60;53.41
6393;BME280;3229;42.674;23.282;2023-05-17T12:29:38;94060.16;;;25.65;53.12
6393;BME280;3229;42.674;23.282;2023-05-17T12:32:07;94046.50;;;25.63;53.09
6393;BME280;3229;42.674;23.282;2023-05-17T12:34:34;94056.47;;;25.66;53.31
6393;BME280;3229;42.674;23.282;2023-05-17T12:37:02;94048.84;;;25.64;53.43
6393;BME280;3229;42.674;23.282;2023-05-17T12:39:31;94045.97;;;25.61;53.42
6393;BME280;3229;42.674;23.282;2023-05-17T12:41:58;94053.81;;;25.61;53.54
6393;BME280;3229;42.674;23.282;2023-05-17T12:44:27;94043.56;;;25.59;53.54
6393;BME280;3229;42.674;23.282;2023-05-17T12:46:54;94040.13;;;25.53;53.33
6393;BME280;3229;42.674;23.282;2023-05-17T12:49:22;94036.41;;;25.49;53.70
6393;BME280;3229;42.674;23.282;2023-05-17T12:51:49;94039.81;;;25.50;53.61
6393;BME280;3229;42.674;23.282;2023-05-17T12:54:25;94030.88;;;25.46;53.80
6393;BME280;3229;42.674;23.282;2023-05-17T12:56:52;94028.63;;;25.33;53.77
6393;BME280;3229;42.674;23.282;2023-05-17T12:59:19;94032.66;;;25.40;53.70
6393;BME280;3229;42.674;23.282;2023-05-17T13:01:51;94033.47;;;25.46;53.55
6393;BME280;3229;42.674;23.282;2023-05-17T13:04:27;94031.06;;;25.39;53.45
6393;BME280;3229;42.674;23.282;2023-05-17T13:06:57;94035.84;;;25.47;53.61
6393;BME280;3229;42.674;23.282;2023-05-17T13:09:25;94040.38;;;25.52;53.63
6393;BME280;3229;42.674;23.282;2023-05-17T13:11:56;94035.94;;;25.52;53.33
6393;BME280;3229;42.674;23.282;2023-05-17T13:14:34;94038.28;;;25.54;53.29
6393;BME280;3229;42.674;23.282;2023-05-17T13:17:04;94036.47;;;25.55;53.30